Himrod, New York
Current Conditions -  °F | °C
As of 2:53 PM on Thursday 30 Oct 2014 (Local Time) from KPEO Reporting Station
Overcast Overcast  
Wind Chill: 43°   Ceiling: 4100
Heat Index: 46°   Visibility: 10mi
Dew Point: 34°   Wind: 6mph
Humidity: 63%   Direction: 300°WNW
Pressure: 30.04"   Gusts: NA
Location:  42.59°N, 76.96°W
Report Text: KPEO 301853Z AUTO 30005KT 10SM OVC041 08/01 A3004 RMK AO2 SLP176 T00780011
Loading
Personal Weather Stations






























Interactive Weather Map
Tropical Storm Tracking
New forecast layout! Learn more

10-Day Weather Forecast

Advertisements
Track Severe Weather on mobile